Weather reports worldwide

Advertisment
Monte Settepani, Italy (16111): temperature & dewpoint: 12.10.2018 03:00:00 - 18.10.2018 03:00:00 (CEST)Monte Settepani, Italy (16111): wind speed: 12.10.2018 03:00:00 - 18.10.2018 03:00:00 (CEST)Monte Settepani, Italy (16111): wind direction: 12.10.2018 03:00:00 - 18.10.2018 03:00:00 (CEST)Monte Settepani, Italy (16111): precipitation: 12.10.2018 03:00:00 - 18.10.2018 03:00:00 (CEST)
Date & Time tt [°C] td [°C] ff [km/h] ff [kn] dd rr [mm]
18.10.2018 03:00:00 8,4 - 26 14 NNW -
18.10.2018 02:00:00 8,4 - 26 14 N -
18.10.2018 01:00:00 8,2 - 26 14 N -
18.10.2018 00:00:00 8,1 - 28 15 NNW -
17.10.2018 23:00:00 8,1 - 22 12 NNW -
17.10.2018 22:00:00 8,1 - 21 11 NNW -
17.10.2018 21:00:00 8,1 - 21 11 NNW -
17.10.2018 20:00:00 8,1 - 22 12 NW -
17.10.2018 19:00:00 8,2 - 26 14 NNW -
17.10.2018 18:00:00 8,2 - 26 14 NW -
17.10.2018 17:00:00 8,2 - 22 12 NW -
17.10.2018 16:00:00 8,3 - 22 12 NW -
17.10.2018 15:00:00 8,4 - 18 10 NNW -
17.10.2018 14:00:00 8,3 - 26 14 NNW -
17.10.2018 13:00:00 8,2 - 29 16 NW -
17.10.2018 12:00:00 8,3 - 29 16 NNW -
17.10.2018 11:00:00 8,2 - 26 14 N -
17.10.2018 10:00:00 8,2 - 28 15 NNW -
17.10.2018 09:00:00 8,2 8,2 26 14 N -
17.10.2018 08:00:00 8,3 - 29 16 NNW -
17.10.2018 07:00:00 8,2 8,2 31 17 NNW -
17.10.2018 06:00:00 8,1 8,1 28 15 NW -
17.10.2018 05:00:00 7,8 7,8 28 15 NNW -
17.10.2018 04:00:00 8,2 8,2 24 13 NW -
17.10.2018 03:00:00 8,1 8,1 29 16 NNW -
17.10.2018 02:00:00 7,9 7,9 29 16 NNW -
17.10.2018 01:00:00 7,9 7,9 26 14 NNW -
17.10.2018 00:00:00 7,8 7,8 18 10 N -
16.10.2018 23:00:00 8,0 8,0 16 9 W -
16.10.2018 22:00:00 8,2 8,2 26 14 NNW -
16.10.2018 21:00:00 8,1 8,1 31 17 NNW -
16.10.2018 20:00:00 8,3 8,3 22 12 NNW -
16.10.2018 19:00:00 8,5 8,5 29 16 NNW -
16.10.2018 18:00:00 8,4 8,4 29 16 NNW -
16.10.2018 17:00:00 8,2 8,2 31 17 N -
16.10.2018 16:00:00 8,2 8,2 34 18 NNW -
16.10.2018 15:00:00 8,3 8,3 34 18 NNW -
16.10.2018 14:00:00 8,3 8,3 29 16 N 0,0
16.10.2018 13:00:00 8,3 8,3 29 16 NW -
16.10.2018 12:00:00 8,2 8,2 29 16 NNW -
16.10.2018 11:00:00 8,1 8,1 34 18 NNW -
16.10.2018 10:00:00 8,2 8,2 34 18 N -
16.10.2018 09:00:00 8,1 8,1 34 18 N -
16.10.2018 08:00:00 8,1 8,1 31 17 NNW 0,0
16.10.2018 07:00:00 8,2 8,2 31 17 N -
16.10.2018 06:00:00 8,0 8,0 35 19 NNW -
16.10.2018 05:00:00 8,0 8,0 29 16 N -
16.10.2018 04:00:00 7,9 7,9 24 13 NNW -
16.10.2018 03:00:00 7,9 7,9 21 11 N -
16.10.2018 02:00:00 7,9 7,9 18 10 N 0,0
16.10.2018 01:00:00 7,7 7,7 21 11 NNE -
16.10.2018 00:00:00 7,9 7,9 21 11 NW -
15.10.2018 23:00:00 8,0 8,0 26 14 NNW -
15.10.2018 22:00:00 8,1 8,1 21 11 NNE -
15.10.2018 21:00:00 8,0 8,0 24 13 NNW -
15.10.2018 20:00:00 8,0 8,0 18 10 NW 0,0
15.10.2018 19:00:00 7,9 7,9 21 11 NNW -
15.10.2018 18:00:00 8,1 8,1 24 13 N -
15.10.2018 17:00:00 8,4 8,4 16 9 N -
15.10.2018 16:00:00 8,5 8,5 24 13 N -
15.10.2018 15:00:00 8,6 8,6 22 12 NNW -
15.10.2018 14:00:00 8,1 8,1 16 9 NW 0,0
15.10.2018 13:00:00 8,7 8,7 18 10 WNW -
15.10.2018 12:00:00 8,9 8,9 18 10 WNW -
15.10.2018 11:00:00 8,4 8,4 18 10 N -
15.10.2018 10:00:00 8,0 8,0 21 11 NNW -
15.10.2018 09:00:00 7,9 7,9 21 11 NNW -
15.10.2018 08:00:00 7,5 7,5 21 11 NW 0,0
15.10.2018 07:00:00 7,5 7,5 28 15 NNW -
15.10.2018 06:00:00 7,6 7,6 22 12 N -
15.10.2018 05:00:00 7,6 7,6 26 14 NNW -
15.10.2018 04:00:00 7,7 7,7 22 12 N -
15.10.2018 03:00:00 7,6 7,6 24 13 NNW -
15.10.2018 02:00:00 7,7 7,7 26 14 WNW 0,0
15.10.2018 01:00:00 7,5 7,5 24 13 NW -
15.10.2018 00:00:00 7,8 7,8 21 11 WNW -
14.10.2018 23:00:00 8,0 8,0 18 10 NNE -
14.10.2018 22:00:00 8,1 8,1 21 11 WNW -
14.10.2018 21:00:00 8,2 8,2 16 9 NNW -
14.10.2018 20:00:00 8,3 8,3 24 13 N 0,0
14.10.2018 19:00:00 8,5 8,5 18 10 NW -
14.10.2018 18:00:00 9,2 9,2 16 9 NW -
14.10.2018 17:00:00 10,1 9,6 16 9 N -
14.10.2018 16:00:00 11,0 9,7 13 7 NW -
14.10.2018 15:00:00 11,1 9,8 15 8 NNW -
14.10.2018 14:00:00 12,0 10,6 11 6 NW 0,0
14.10.2018 13:00:00 11,0 10,4 13 7 NW -
14.10.2018 12:00:00 9,9 9,9 16 9 NW -
14.10.2018 11:00:00 9,2 9,2 18 10 ENE -
14.10.2018 10:00:00 8,6 8,6 16 9 N -
14.10.2018 09:00:00 7,8 7,8 28 15 WNW -
14.10.2018 08:00:00 7,7 7,7 24 13 NNW 0,0
14.10.2018 07:00:00 7,7 7,7 31 17 NNW -
14.10.2018 06:00:00 7,7 7,7 24 13 NW -
14.10.2018 05:00:00 7,9 7,9 24 13 WNW -
14.10.2018 04:00:00 8,3 8,3 24 13 NW -
14.10.2018 03:00:00 9,2 7,1 28 15 NNW -
14.10.2018 02:00:00 9,4 9,1 28 15 NNW 0,0
14.10.2018 01:00:00 9,4 9,4 26 14 NNW -
14.10.2018 00:00:00 9,8 9,3 26 14 NNW -
13.10.2018 23:00:00 10,1 10,1 21 11 NNW -
13.10.2018 22:00:00 10,4 10,4 15 8 N -
13.10.2018 21:00:00 10,8 9,0 26 14 NNW -
13.10.2018 20:00:00 11,0 11,0 26 14 NNW 0,0
13.10.2018 19:00:00 11,3 11,3 21 11 NNW -
13.10.2018 18:00:00 12,5 12,5 13 7 N -
13.10.2018 17:00:00 13,9 13,2 13 7 NNW -
13.10.2018 16:00:00 14,6 13,4 9 5 NNW -
13.10.2018 15:00:00 15,6 14,1 8 4 NE -
13.10.2018 14:00:00 15,4 13,9 8 4 NW -
13.10.2018 13:00:00 14,7 13,2 8 4 NNW -
13.10.2018 12:00:00 13,1 12,1 15 8 NNW -
13.10.2018 11:00:00 13,2 11,9 13 7 N -
13.10.2018 10:00:00 11,8 10,7 22 12 NNW -
13.10.2018 09:00:00 11,1 10,5 21 11 N -
13.10.2018 08:00:00 10,4 9,8 26 14 N 0,0
13.10.2018 07:00:00 10,5 10,2 26 14 NW -
13.10.2018 06:00:00 10,5 10,2 28 15 NNW -
13.10.2018 05:00:00 10,6 10,3 28 15 NNW -
13.10.2018 04:00:00 10,7 10,4 28 15 NNW -
13.10.2018 03:00:00 10,6 10,4 28 15 NNW -
13.10.2018 02:00:00 10,5 10,2 26 14 NNW 0,0
13.10.2018 01:00:00 10,6 10,1 26 14 NW -
13.10.2018 00:00:00 10,6 10,4 26 14 NW -
12.10.2018 23:00:00 10,8 10,5 28 15 NNW -
12.10.2018 22:00:00 10,7 10,7 22 12 NW -
12.10.2018 21:00:00 11,0 10,8 24 13 NNW -
12.10.2018 20:00:00 11,4 10,6 24 13 NW 0,0
12.10.2018 19:00:00 11,3 11,3 21 11 WNW -
12.10.2018 18:00:00 12,4 11,1 15 8 NNW -
12.10.2018 17:00:00 12,7 11,3 15 8 NW -
12.10.2018 16:00:00 13,2 12,1 11 6 NNW -
12.10.2018 15:00:00 12,7 11,7 15 8 NNW -
12.10.2018 14:00:00 12,1 12,1 16 9 NW 0,0
12.10.2018 13:00:00 11,6 11,6 15 8 NW -
12.10.2018 12:00:00 11,0 - 18 10 NNW -
12.10.2018 11:00:00 9,4 - 21 11 N -
12.10.2018 10:00:00 8,9 - 24 13 NNW -
12.10.2018 09:00:00 8,4 8,4 22 12 WNW -
12.10.2018 08:00:00 8,0 8,0 21 11 WNW -
12.10.2018 07:00:00 8,0 8,0 18 10 WNW -
12.10.2018 06:00:00 8,0 8,0 21 11 NW -
12.10.2018 05:00:00 7,7 7,7 24 13 N -
12.10.2018 04:00:00 7,8 7,8 21 11 NW -
12.10.2018 03:00:00 7,8 7,8 24 13 WNW -

tt = temperature
td = dewpoint
ff = wind speed
dd = wind direction
rr = precipitation

Next stations